Time;durP1;ratioP1;P1;durP2;ratioP2;P2;SDS_P1;SDS_P2;PMS_P1;PMS_P2;Temp;Humidity;BMP_temperature;BMP_pressure;BME280_temperature;BME280_humidity;BME280_pressure;Samples;Min_cycle;Max_cycle;Signal;HPM_P1;HPM_P2
2022/12/03 00:01:57;;;;;;;9.67;7.70;;;;;;;11.14;73.45;95331.44;5012608;28;20196;-48
2022/12/03 00:04:25;;;;;;;11.60;8.43;;;;;;;11.14;73.43;95330.59;5011807;28;20259;-48
2022/12/03 00:06:52;;;;;;;10.73;8.33;;;;;;;11.12;73.35;95332.47;5013043;28;20184;-49
2022/12/03 00:09:19;;;;;;;11.40;8.57;;;;;;;11.13;73.49;95334.91;5012056;28;20188;-47
2022/12/03 00:11:46;;;;;;;8.87;7.93;;;;;;;11.13;73.40;95336.66;5012576;28;20224;-47
2022/12/03 00:14:12;;;;;;;11.13;8.50;;;;;;;11.14;73.35;95345.94;5011986;28;20670;-48
2022/12/03 00:16:39;;;;;;;10.80;7.80;;;;;;;11.13;73.49;95342.59;5012095;28;20199;-50
2022/12/03 00:19:06;;;;;;;9.27;7.87;;;;;;;11.13;73.49;95344.34;5012134;28;20295;-49
2022/12/03 00:21:34;;;;;;;11.03;7.70;;;;;;;11.13;73.52;95347.69;5011969;28;20192;-47
2022/12/03 00:24:01;;;;;;;10.17;7.70;;;;;;;11.14;73.40;95357.03;5011721;28;20200;-50
2022/12/03 00:26:28;;;;;;;9.03;7.93;;;;;;;11.13;73.26;95350.25;5011867;28;20192;-48
2022/12/03 00:28:56;;;;;;;10.77;8.03;;;;;;;11.14;73.28;95354.47;5011813;28;20200;-47
2022/12/03 00:31:23;;;;;;;8.67;7.57;;;;;;;11.14;73.24;95345.94;5011368;28;20246;-47
2022/12/03 00:33:50;;;;;;;9.03;7.20;;;;;;;11.12;73.53;95350.41;5012035;28;20192;-47
2022/12/03 00:36:17;;;;;;;8.67;7.43;;;;;;;11.13;73.40;95355.38;5011642;28;20195;-48
2022/12/03 00:38:45;;;;;;;9.07;7.30;;;;;;;11.14;73.30;95356.19;5011322;28;20184;-49
2022/12/03 00:41:12;;;;;;;8.43;7.00;;;;;;;11.14;73.27;95354.47;5011383;28;20734;-48
2022/12/03 00:43:39;;;;;;;9.00;7.33;;;;;;;11.12;73.38;95353.75;5011617;28;20250;-48
2022/12/03 00:46:06;;;;;;;8.87;7.97;;;;;;;11.15;73.21;95353.53;5011482;28;20379;-48
2022/12/03 00:48:33;;;;;;;9.47;8.47;;;;;;;11.15;73.23;95362.94;5011810;28;20197;-48
2022/12/03 00:50:59;;;;;;;8.23;6.93;;;;;;;11.15;73.03;95368.88;5011218;28;20223;-47
2022/12/03 00:53:26;;;;;;;12.03;7.10;;;;;;;11.15;73.31;95365.50;5011242;28;20196;-48
2022/12/03 00:55:54;;;;;;;9.80;7.43;;;;;;;11.15;73.02;95363.75;5010924;28;20340;-48
2022/12/03 00:58:21;;;;;;;7.83;6.83;;;;;;;11.01;73.19;95349.53;5011195;28;20192;-48
2022/12/03 01:00:48;;;;;;;7.83;6.80;;;;;;;11.16;73.09;95379.94;5010953;28;20196;-47
2022/12/03 01:03:14;;;;;;;7.87;7.07;;;;;;;11.15;72.89;95379.13;5010655;28;20260;-49
2022/12/03 01:05:41;;;;;;;8.50;6.80;;;;;;;11.15;73.00;95376.56;5011338;28;20556;-47
2022/12/03 01:08:08;;;;;;;10.07;8.10;;;;;;;11.16;73.00;95377.38;5010840;28;20192;-48
2022/12/03 01:10:35;;;;;;;7.73;6.90;;;;;;;11.13;73.06;95373.31;5011170;28;20286;-49
2022/12/03 01:13:03;;;;;;;9.43;7.07;;;;;;;11.16;73.18;95382.50;5010694;28;20196;-50
2022/12/03 01:15:30;;;;;;;10.57;8.63;;;;;;;11.16;73.01;95393.53;5011162;28;20192;-49
2022/12/03 01:17:57;;;;;;;8.87;7.10;;;;;;;11.16;73.05;95388.41;5010882;28;20211;-49
2022/12/03 01:20:23;;;;;;;8.53;7.60;;;;;;;11.15;72.96;95383.44;5011275;28;20184;-50
2022/12/03 01:22:50;;;;;;;9.17;7.53;;;;;;;11.13;73.00;95380.16;5010821;28;20192;-49
2022/12/03 01:25:17;;;;;;;8.90;7.33;;;;;;;11.17;72.82;95389.22;5010752;28;20194;-50
2022/12/03 01:27:44;;;;;;;8.43;7.47;;;;;;;11.17;72.94;95391.78;5010906;28;20196;-49
2022/12/03 01:30:13;;;;;;;9.37;7.87;;;;;;;11.17;72.82;95389.22;5010957;28;20652;-49
2022/12/03 01:32:39;;;;;;;8.20;7.30;;;;;;;11.18;72.91;95388.28;5010951;28;20228;-49
2022/12/03 01:35:06;;;;;;;8.13;7.00;;;;;;;11.15;72.80;95386.81;5010187;28;20208;-49
2022/12/03 01:37:33;;;;;;;9.03;7.53;;;;;;;11.15;72.96;95391.13;5010832;28;20678;-49
2022/12/03 01:40:00;;;;;;;9.60;7.53;;;;;;;11.16;72.79;95390.97;5010717;28;20203;-47
2022/12/03 01:42:30;;;;;;;9.63;7.97;;;;;;;11.16;72.92;95390.97;5010581;28;20279;-50
2022/12/03 01:44:59;;;;;;;10.70;6.80;;;;;;;11.16;72.88;95387.63;5009951;28;20196;-47
2022/12/03 01:47:30;;;;;;;9.70;7.37;;;;;;;11.03;72.79;95373.25;5010623;28;20203;-47
2022/12/03 01:50:01;;;;;;;9.23;7.23;;;;;;;11.09;72.96;95381.34;5009990;28;20196;-50
2022/12/03 01:52:31;;;;;;;7.87;7.07;;;;;;;11.13;72.69;95386.09;5010399;28;20247;-49
2022/12/03 01:55:00;;;;;;;9.47;8.00;;;;;;;11.13;72.73;95386.09;5010120;28;20675;-49
2022/12/03 01:57:31;;;;;;;8.80;7.13;;;;;;;11.14;72.83;95382.63;5009852;28;20192;-49
2022/12/03 01:59:59;;;;;;;9.97;6.80;;;;;;;11.14;72.80;95382.63;5010122;28;20659;-49
2022/12/03 02:02:29;;;;;;;8.80;7.10;;;;;;;10.91;72.89;95350.38;5010276;28;20204;-49
2022/12/03 02:04:56;;;;;;;8.53;7.30;;;;;;;11.13;72.94;95382.72;5009686;28;20199;-49
2022/12/03 02:07:26;;;;;;;9.10;8.13;;;;;;;10.92;73.04;95357.91;5009623;28;20722;-48
2022/12/03 02:09:54;;;;;;;8.63;7.07;;;;;;;11.12;72.85;95389.59;5010219;28;20544;-48
2022/12/03 02:12:25;;;;;;;9.10;7.43;;;;;;;11.11;72.87;95388.00;5009640;28;20224;-48
2022/12/03 02:14:53;;;;;;;10.20;7.63;;;;;;;10.90;72.63;95354.69;5009695;28;20208;-48
2022/12/03 02:17:20;;;;;;;8.37;7.47;;;;;;;11.10;72.67;95383.81;5009716;28;20209;-48
2022/12/03 02:19:48;;;;;;;8.33;7.03;;;;;;;11.10;72.68;95388.94;5009677;28;20197;-47
2022/12/03 02:22:27;;;;;;;8.73;7.37;;;;;;;11.08;72.78;95384.84;5009733;28;20196;-48
2022/12/03 02:24:58;;;;;;;7.83;6.43;;;;;;;11.09;72.86;95384.72;5009871;28;20306;-48
2022/12/03 02:27:27;;;;;;;8.43;7.17;;;;;;;11.08;72.79;95377.19;5009460;28;20188;-48
2022/12/03 02:29:54;;;;;;;8.27;7.27;;;;;;;11.01;72.68;95370.00;5009102;28;20628;-49
2022/12/03 02:32:22;;;;;;;11.37;7.30;;;;;;;11.08;72.86;95377.19;5009698;28;20549;-48
2022/12/03 02:34:50;;;;;;;7.67;6.87;;;;;;;11.08;72.82;95372.88;5009971;28;20563;-49
2022/12/03 02:37:21;;;;;;;9.53;7.30;;;;;;;11.03;72.79;95363.00;5009817;28;20192;-47
2022/12/03 02:39:52;;;;;;;8.40;7.57;;;;;;;11.08;72.78;95374.63;5008699;28;20644;-49
2022/12/03 02:45:14;;;;;;;8.40;7.00;;;;;;;11.05;72.93;95381.63;4987171;28;20193;-48
2022/12/03 02:47:44;;;;;;;7.63;6.73;;;;;;;11.04;72.85;95382.53;4987365;28;20193;-48
2022/12/03 02:50:13;;;;;;;8.00;6.60;;;;;;;11.04;72.88;95379.16;4986760;28;20195;-48
2022/12/03 02:52:41;;;;;;;8.97;6.67;;;;;;;11.04;72.63;95379.16;4987293;28;20720;-47
2022/12/03 02:55:09;;;;;;;8.13;7.33;;;;;;;11.03;72.99;95380.91;4987053;28;20197;-47
2022/12/03 02:57:38;;;;;;;7.50;6.77;;;;;;;11.03;73.02;95367.31;4987596;28;20189;-47
2022/12/03 03:00:08;;;;;;;8.57;7.27;;;;;;;11.02;72.82;95371.63;4986351;28;20193;-48
2022/12/03 03:02:37;;;;;;;8.27;7.37;;;;;;;11.03;72.66;95380.91;4987190;28;20189;-48
2022/12/03 03:05:06;;;;;;;8.07;7.13;;;;;;;11.02;72.86;95374.19;4987289;28;20664;-48
2022/12/03 03:07:35;;;;;;;9.93;7.93;;;;;;;11.02;72.88;95378.50;4987493;28;20720;-47
2022/12/03 03:10:02;;;;;;;8.57;7.37;;;;;;;11.01;72.78;95375.13;4987087;28;20197;-48
2022/12/03 03:12:29;;;;;;;8.30;7.47;;;;;;;10.99;72.92;95376.97;4986766;28;20219;-48
2022/12/03 03:14:56;;;;;;;8.67;7.20;;;;;;;10.96;72.84;95369.53;4986915;28;20268;-48
2022/12/03 03:17:23;;;;;;;7.17;6.47;;;;;;;10.98;72.85;95372.00;4986543;28;20197;-49
2022/12/03 03:19:51;;;;;;;7.50;6.57;;;;;;;10.97;72.90;95371.19;4987315;28;20185;-48
2022/12/03 03:22:18;;;;;;;9.03;7.47;;;;;;;10.96;73.12;95366.97;5003343;28;20211;-48
2022/12/03 03:24:45;;;;;;;8.50;6.40;;;;;;;10.96;72.93;95363.63;5013096;28;20223;-48
2022/12/03 03:27:12;;;;;;;8.00;6.77;;;;;;;10.96;72.65;95363.63;5013045;28;20192;-49
2022/12/03 03:29:39;;;;;;;7.30;6.50;;;;;;;10.94;72.58;95362.94;5013049;28;20192;-48
2022/12/03 03:32:06;;;;;;;7.93;7.10;;;;;;;10.94;73.04;95357.81;5012320;28;20231;-48
2022/12/03 03:34:33;;;;;;;7.70;6.90;;;;;;;10.91;72.98;95360.63;5013115;28;20624;-47
2022/12/03 03:37:01;;;;;;;8.50;7.17;;;;;;;10.89;72.72;95365.88;5012814;28;20192;-48
2022/12/03 03:39:28;;;;;;;7.67;6.63;;;;;;;10.90;72.69;95377.72;5013187;28;20208;-49
2022/12/03 03:41:55;;;;;;;9.40;7.63;;;;;;;10.90;72.82;95380.28;5013087;28;20659;-49
2022/12/03 03:44:22;;;;;;;7.60;6.83;;;;;;;10.90;72.84;95380.28;5012824;28;20196;-48
2022/12/03 03:46:49;;;;;;;7.80;6.80;;;;;;;10.90;72.86;95379.47;5012709;28;20196;-48
2022/12/03 03:49:16;;;;;;;7.63;6.77;;;;;;;10.91;72.83;95391.31;5012618;28;20199;-48
2022/12/03 03:51:43;;;;;;;8.00;6.97;;;;;;;10.89;72.78;95383.78;5012709;28;20216;-48
2022/12/03 03:54:12;;;;;;;9.83;6.77;;;;;;;10.77;72.81;95365.09;5012522;28;20187;-48
2022/12/03 03:56:39;;;;;;;8.00;7.20;;;;;;;10.89;72.94;95381.22;5012346;28;20342;-48
2022/12/03 03:59:06;;;;;;;9.23;7.83;;;;;;;10.05;72.60;95244.66;5012527;28;20279;-49
2022/12/03 04:01:33;;;;;;;7.10;6.40;;;;;;;10.89;72.66;95382.97;5012447;28;20196;-48
2022/12/03 04:04:00;;;;;;;7.43;6.73;;;;;;;10.89;72.84;95390.66;5012058;28;20200;-49
2022/12/03 04:06:27;;;;;;;8.10;6.73;;;;;;;10.88;72.72;95386.44;5011958;28;20192;-49
2022/12/03 04:08:53;;;;;;;8.27;6.90;;;;;;;10.88;73.02;95391.56;5012579;28;20544;-48
2022/12/03 04:14:06;;;;;;;6.47;5.77;;;;;;;10.86;72.86;95401.94;5012147;28;20310;-48
2022/12/03 04:16:33;;;;;;;7.40;6.63;;;;;;;10.85;72.70;95404.63;5011907;28;20188;-48
2022/12/03 04:18:59;;;;;;;7.20;6.50;;;;;;;10.87;72.92;95413.78;5012218;28;20193;-48
2022/12/03 04:24:11;;;;;;;7.77;6.97;;;;;;;10.85;72.83;95402.06;5011776;28;20203;-47
2022/12/03 04:29:24;;;;;;;7.27;6.07;;;;;;;10.85;72.90;95404.63;5012109;28;20199;-47
2022/12/03 04:37:20;;;;;;;7.03;6.33;;;;;;;10.84;72.70;95410.66;5011431;28;20195;-47
2022/12/03 04:39:47;;;;;;;7.87;6.27;;;;;;;10.84;73.03;95420.88;5011756;28;20193;-47
2022/12/03 04:42:15;;;;;;;6.97;6.27;;;;;;;10.85;72.81;95419.97;5011663;28;20834;-48
2022/12/03 04:44:42;;;;;;;6.77;5.90;;;;;;;10.85;72.83;95414.84;5011612;28;20576;-49
2022/12/03 04:47:11;;;;;;;7.93;6.87;;;;;;;10.85;72.74;95414.84;5011022;28;20196;-47
2022/12/03 04:49:39;;;;;;;7.07;6.23;;;;;;;10.85;72.97;95420.78;5011634;28;20262;-49
2022/12/03 04:52:06;;;;;;;9.30;7.53;;;;;;;10.85;72.91;95410.53;5011384;28;20232;-49
2022/12/03 04:54:33;;;;;;;6.30;5.70;;;;;;;10.85;72.83;95404.63;5012052;28;20185;-49
2022/12/03 04:57:00;;;;;;;6.90;6.17;;;;;;;10.62;72.73;95376.56;5011341;28;20228;-48
2022/12/03 04:59:28;;;;;;;7.73;6.37;;;;;;;10.85;72.88;95412.28;5011159;28;20215;-48
2022/12/03 05:01:55;;;;;;;7.27;6.37;;;;;;;10.82;72.89;95408.22;5011342;28;20644;-49
2022/12/03 05:04:22;;;;;;;6.50;5.90;;;;;;;10.69;72.94;95392.22;5011552;28;20193;-48
2022/12/03 05:06:49;;;;;;;8.43;6.73;;;;;;;10.82;72.73;95415.91;5011655;28;20201;-49
2022/12/03 05:09:16;;;;;;;7.13;5.63;;;;;;;10.82;72.98;95420.19;5010798;28;20196;-49
2022/12/03 05:11:43;;;;;;;6.67;5.87;;;;;;;10.79;72.84;95416.13;5011176;28;20270;-49
2022/12/03 05:14:10;;;;;;;6.93;5.93;;;;;;;10.80;72.92;95417.78;5010773;28;20199;-48
2022/12/03 05:16:39;;;;;;;6.80;5.63;;;;;;;10.81;72.79;95419.41;5010886;28;20200;-49
2022/12/03 05:19:07;;;;;;;7.20;5.73;;;;;;;10.78;72.77;95415.31;5011031;28;20193;-49
2022/12/03 05:21:34;;;;;;;7.73;5.43;;;;;;;10.80;72.82;95422.88;5010752;28;20208;-48
2022/12/03 05:24:01;;;;;;;6.20;4.97;;;;;;;10.81;72.91;95421.94;5010883;28;20196;-47
2022/12/03 05:26:28;;;;;;;5.60;5.00;;;;;;;10.80;72.83;95426.25;5010766;28;20192;-49
2022/12/03 05:28:55;;;;;;;6.77;5.50;;;;;;;10.81;72.70;95424.50;5010406;28;20193;-47
2022/12/03 05:31:21;;;;;;;6.73;6.07;;;;;;;10.80;72.64;95428.81;5009890;28;20196;-47
2022/12/03 05:33:49;;;;;;;6.03;5.30;;;;;;;10.81;72.74;95432.19;5010603;28;20266;-49
2022/12/03 05:36:16;;;;;;;6.67;5.93;;;;;;;10.76;72.82;95422.31;5010902;28;20569;-49
2022/12/03 05:38:43;;;;;;;8.60;5.60;;;;;;;10.79;72.55;95432.31;5011189;28;20196;-48
2022/12/03 05:43:51;;;;;;;7.70;5.23;;;;;;;10.78;72.69;95438.34;5009724;28;20207;-49
2022/12/03 05:46:18;;;;;;;6.30;4.97;;;;;;;10.78;72.56;95435.78;5009712;28;20192;-49
2022/12/03 05:48:44;;;;;;;6.10;5.47;;;;;;;10.78;72.53;95437.53;5010890;28;20196;-50
2022/12/03 05:51:13;;;;;;;6.20;4.47;;;;;;;10.79;72.62;95441.72;5010644;28;20193;-50
2022/12/03 05:53:39;;;;;;;6.20;5.27;;;;;;;10.78;72.52;95435.78;5009909;28;20261;-49
2022/12/03 05:56:07;;;;;;;6.50;5.27;;;;;;;10.80;72.67;95443.34;5010159;28;20650;-49
2022/12/03 05:58:33;;;;;;;5.60;5.10;;;;;;;10.80;72.83;95441.59;5010249;28;20682;-48
2022/12/03 06:01:00;;;;;;;6.13;5.53;;;;;;;10.82;72.63;95445.78;5009774;28;20188;-47
2022/12/03 06:03:27;;;;;;;5.87;5.27;;;;;;;10.79;72.65;95449.38;5009699;28;20188;-48
2022/12/03 06:05:54;;;;;;;7.17;4.87;;;;;;;10.84;72.57;95460.09;5009970;28;20185;-48
2022/12/03 06:08:22;;;;;;;5.87;5.07;;;;;;;10.87;72.68;95459.03;5010279;28;20192;-48
2022/12/03 06:10:49;;;;;;;4.77;4.37;;;;;;;10.88;72.48;95458.09;5009977;28;20188;-48
2022/12/03 06:13:16;;;;;;;7.80;5.37;;;;;;;10.86;72.59;95459.97;5010211;28;20204;-49
2022/12/03 06:15:43;;;;;;;6.03;5.20;;;;;;;10.89;72.32;95463.09;5009599;28;20283;-49
2022/12/03 06:18:09;;;;;;;6.00;5.40;;;;;;;10.90;72.59;95458.78;5009936;28;20203;-48
2022/12/03 06:20:36;;;;;;;5.73;4.90;;;;;;;10.91;72.37;95461.22;5009829;28;20644;-49
2022/12/03 06:23:03;;;;;;;5.00;4.50;;;;;;;10.92;72.42;95464.59;5009840;28;20192;-49
2022/12/03 06:25:31;;;;;;;4.73;4.33;;;;;;;10.96;72.44;95468.53;5009559;28;20669;-47
2022/12/03 06:27:58;;;;;;;5.23;4.77;;;;;;;10.97;72.36;95470.19;5009712;28;20379;-48
2022/12/03 06:30:25;;;;;;;5.33;4.83;;;;;;;10.94;72.49;95461.00;5009317;28;20184;-49
2022/12/03 06:32:52;;;;;;;5.30;4.73;;;;;;;10.99;72.31;95468.31;5009809;28;20714;-49
2022/12/03 06:35:24;;;;;;;5.90;5.07;;;;;;;11.03;72.42;95474.81;5009741;28;20203;-49
2022/12/03 06:37:51;;;;;;;5.40;4.90;;;;;;;11.03;72.33;95472.25;5010074;28;20215;-48
2022/12/03 06:40:18;;;;;;;11.27;3.20;;;;;;;11.36;96.65;95467.94;5009816;28;20224;-48
2022/12/03 06:42:46;;;;;;;3.40;3.10;;;;;;;12.02;100.00;95469.34;5009841;28;20189;-49
2022/12/03 06:45:13;;;;;;;5.53;3.33;;;;;;;12.76;99.74;95460.56;5009704;28;20193;-49
2022/12/03 06:47:42;;;;;;;3.63;3.30;;;;;;;13.40;96.74;95452.38;5009840;28;20572;-49
2022/12/03 06:50:12;;;;;;;3.40;2.63;;;;;;;14.05;92.99;95455.94;5005869;28;20611;-49
2022/12/03 06:52:41;;;;;;;6.80;2.53;;;;;;;14.64;89.72;95461.69;5007042;28;20683;-49
2022/12/03 06:55:08;;;;;;;8.27;2.53;;;;;;;15.01;86.98;95440.97;5007623;28;20968;-50
2022/12/03 06:57:35;;;;;;;2.67;2.30;;;;;;;15.54;84.71;95459.97;5007179;28;20196;-49
2022/12/03 07:00:05;;;;;;;3.47;2.47;;;;;;;15.90;82.48;95459.94;5007305;28;20189;-49
2022/12/03 07:02:32;;;;;;;4.00;2.70;;;;;;;16.31;80.64;95472.09;5006438;28;20286;-48
2022/12/03 07:04:58;;;;;;;2.43;2.23;;;;;;;16.60;79.05;95470.94;5007273;28;20248;-50
2022/12/03 07:07:26;;;;;;;2.50;2.30;;;;;;;16.91;77.36;95475.59;5007335;28;20203;-49
2022/12/03 07:10:11;;;;;;;5.43;2.63;;;;;;;17.18;75.98;95483.09;4946269;29;20284;-49
2022/12/03 07:12:38;;;;;;;2.63;2.20;;;;;;;17.40;74.78;95479.09;4945709;29;20352;-48
2022/12/03 07:15:07;;;;;;;2.40;2.17;;;;;;;17.20;73.69;95426.06;4945170;29;20187;-50
2022/12/03 07:17:35;;;;;;;2.40;2.20;;;;;;;17.71;73.07;95479.28;4945733;29;20674;-50
2022/12/03 07:20:03;;;;;;;2.57;2.37;;;;;;;17.97;72.34;95483.50;4945630;29;20198;-48
2022/12/03 07:22:29;;;;;;;5.23;2.30;;;;;;;18.24;71.15;95500.44;4946060;29;20666;-48
2022/12/03 07:24:58;;;;;;;2.70;2.50;;;;;;;18.40;69.78;95499.59;4945503;29;20211;-48
2022/12/03 07:27:25;;;;;;;4.97;2.33;;;;;;;18.54;68.86;95491.13;4945935;29;20198;-48
2022/12/03 07:29:52;;;;;;;4.90;2.80;;;;;;;18.70;67.89;95498.88;4946118;29;20746;-48
2022/12/03 07:32:20;;;;;;;3.47;2.73;;;;;;;18.83;66.93;95500.13;4945829;28;20237;-51
2022/12/03 07:34:47;;;;;;;4.60;2.50;;;;;;;18.97;66.24;95512.38;4945733;29;20198;-49
2022/12/03 07:37:14;;;;;;;8.20;2.70;;;;;;;19.07;65.57;95497.41;4945468;29;20485;-50
2022/12/03 07:39:40;;;;;;;3.13;2.83;;;;;;;19.13;64.89;95504.53;4946063;28;20622;-48
2022/12/03 07:42:10;;;;;;;3.17;2.70;;;;;;;19.17;64.16;95507.56;4946011;28;20679;-50
2022/12/03 07:44:37;;;;;;;2.87;2.67;;;;;;;19.21;63.36;95503.66;4945860;29;20201;-48
2022/12/03 07:47:04;;;;;;;3.17;2.77;;;;;;;19.25;62.73;95500.53;4965727;28;20197;-49
2022/12/03 07:49:32;;;;;;;5.13;3.00;;;;;;;19.30;62.53;95510.44;5006513;28;20188;-50
2022/12/03 07:52:01;;;;;;;3.73;3.40;;;;;;;19.25;62.81;95508.31;5007048;28;20303;-49
2022/12/03 07:54:30;;;;;;;7.50;3.13;;;;;;;19.11;62.99;95514.25;5006634;28;20234;-49
2022/12/03 07:56:58;;;;;;;3.33;2.73;;;;;;;18.86;62.98;95507.56;5006271;28;20232;-50
2022/12/03 07:59:25;;;;;;;4.20;3.60;;;;;;;18.53;63.09;95498.09;5005534;28;20197;-50
2022/12/03 08:01:51;;;;;;;3.40;3.10;;;;;;;18.29;63.14;95513.69;5006804;28;20250;-49
2022/12/03 08:04:20;;;;;;;4.77;3.20;;;;;;;18.02;63.26;95514.88;5006461;28;20185;-48
2022/12/03 08:06:48;;;;;;;3.10;2.80;;;;;;;17.71;63.37;95509.50;4996485;28;20193;-49
2022/12/03 08:09:15;;;;;;;4.47;3.27;;;;;;;17.44;63.41;95514.03;4999624;28;20192;-48
2022/12/03 08:11:43;;;;;;;3.10;2.90;;;;;;;17.18;63.72;95513.31;5007920;28;20199;-48
2022/12/03 08:14:12;;;;;;;3.17;2.97;;;;;;;16.98;63.84;95518.75;5008231;28;20223;-47
2022/12/03 08:16:40;;;;;;;4.37;3.80;;;;;;;16.75;64.09;95510.78;5009545;28;20671;-48
2022/12/03 08:19:09;;;;;;;3.90;3.33;;;;;;;16.56;64.24;95519.50;5008663;28;20306;-47
2022/12/03 08:21:37;;;;;;;3.83;3.53;;;;;;;16.39;64.32;95528.13;4995360;28;20197;-48
2022/12/03 08:24:13;;;;;;;3.57;3.27;;;;;;;16.19;64.51;95522.38;5007177;28;20200;-48
2022/12/03 08:26:42;;;;;;;3.60;3.30;;;;;;;16.03;64.68;95524.84;5009039;28;20203;-48
2022/12/03 08:29:10;;;;;;;7.20;4.07;;;;;;;15.86;64.55;95526.50;5009760;28;20193;-49
2022/12/03 08:31:37;;;;;;;4.17;3.77;;;;;;;15.77;64.93;95538.53;5009470;28;20907;-48
2022/12/03 08:34:16;;;;;;;4.13;3.50;;;;;;;15.65;65.01;95534.53;5009309;28;20228;-48
2022/12/03 08:36:43;;;;;;;3.30;3.00;;;;;;;15.43;65.19;95517.72;5009924;28;20276;-50
2022/12/03 08:39:27;;;;;;;3.77;3.47;;;;;;;15.44;65.07;95531.41;5009283;28;20185;-50
2022/12/03 08:44:53;;;;;;;7.03;3.90;;;;;;;15.27;65.17;95531.25;4948013;29;20733;-48
2022/12/03 08:47:22;;;;;;;4.33;3.90;;;;;;;15.01;65.36;95499.41;4948305;29;20206;-47
2022/12/03 08:49:53;;;;;;;4.17;3.77;;;;;;;15.18;65.37;95539.06;4948096;29;20221;-48
2022/12/03 08:52:21;;;;;;;3.80;3.50;;;;;;;15.12;65.33;95535.28;4947917;29;20593;-48
2022/12/03 08:54:52;;;;;;;4.57;4.17;;;;;;;15.08;65.33;95528.00;4947339;29;20266;-48
2022/12/03 08:57:27;;;;;;;4.30;3.90;;;;;;;15.03;65.32;95531.81;4947586;29;20327;-50
2022/12/03 08:59:58;;;;;;;5.30;3.83;;;;;;;14.95;65.44;95523.19;4948286;29;20205;-48
2022/12/03 09:02:31;;;;;;;4.20;3.80;;;;;;;14.88;65.34;95520.38;4948051;29;20297;-48
2022/12/03 09:04:59;;;;;;;4.33;3.90;;;;;;;14.87;65.37;95525.66;4948005;29;20650;-48
2022/12/03 09:07:25;;;;;;;4.90;4.40;;;;;;;14.81;65.41;95529.63;4948181;29;20199;-48
2022/12/03 09:09:54;;;;;;;4.67;4.27;;;;;;;14.74;65.46;95524.22;4947859;29;20194;-50
2022/12/03 09:12:20;;;;;;;4.33;3.90;;;;;;;14.68;65.42;95524.81;4947837;29;20194;-48
2022/12/03 09:14:47;;;;;;;4.40;3.93;;;;;;;14.65;65.46;95521.72;4947585;29;20214;-49
2022/12/03 09:17:14;;;;;;;4.37;3.97;;;;;;;14.61;65.52;95535.81;4947224;29;20201;-48
2022/12/03 09:19:44;;;;;;;4.87;4.37;;;;;;;14.55;65.83;95522.56;4992904;28;20201;-48
2022/12/03 09:22:12;;;;;;;4.63;4.23;;;;;;;14.47;65.51;95513.91;5005435;28;20259;-47
2022/12/03 09:24:38;;;;;;;4.80;4.30;;;;;;;14.46;65.58;95520.78;5009951;28;20194;-48
2022/12/03 09:27:07;;;;;;;5.13;4.63;;;;;;;14.42;65.76;95516.91;5011658;28;20326;-48
2022/12/03 09:29:33;;;;;;;4.50;4.10;;;;;;;14.40;65.67;95526.50;5011122;28;20204;-48
2022/12/03 09:32:00;;;;;;;4.43;4.03;;;;;;;13.42;65.71;95380.31;5010887;28;20706;-48
2022/12/03 09:34:27;;;;;;;5.07;4.17;;;;;;;14.32;65.85;95526.38;5010448;28;20232;-48
2022/12/03 09:36:54;;;;;;;4.93;4.47;;;;;;;14.29;65.95;95526.66;5010367;28;20306;-47
2022/12/03 09:39:21;;;;;;;6.30;4.50;;;;;;;14.27;65.97;95523.44;5010905;28;20188;-50
2022/12/03 09:41:48;;;;;;;5.00;4.57;;;;;;;14.25;65.99;95525.34;5010854;28;20208;-48
2022/12/03 09:44:16;;;;;;;4.27;3.87;;;;;;;14.21;66.19;95519.66;5011006;28;20204;-48
2022/12/03 09:46:43;;;;;;;4.70;4.13;;;;;;;14.20;65.97;95512.06;5010763;28;20185;-47
2022/12/03 09:49:14;;;;;;;5.87;4.70;;;;;;;14.19;65.98;95516.41;5010633;28;20203;-49
2022/12/03 09:51:41;;;;;;;4.67;4.20;;;;;;;14.16;66.11;95511.56;5010536;28;20197;-48
2022/12/03 09:54:10;;;;;;;4.27;3.80;;;;;;;14.17;66.04;95515.75;5010727;28;20220;-48
2022/12/03 09:56:38;;;;;;;4.43;4.03;;;;;;;14.14;66.21;95512.63;5010335;28;20239;-48
2022/12/03 09:59:12;;;;;;;5.20;4.70;;;;;;;14.15;66.12;95501.38;5010713;28;20196;-49
2022/12/03 10:01:40;;;;;;;4.77;4.37;;;;;;;14.15;66.17;95501.38;5010659;28;20671;-48
2022/12/03 10:04:10;;;;;;;5.03;4.53;;;;;;;14.13;66.03;95496.38;5010456;28;20204;-48
2022/12/03 10:06:38;;;;;;;4.53;4.13;;;;;;;14.13;66.04;95495.59;5010323;28;20189;-48
2022/12/03 10:09:06;;;;;;;4.90;4.50;;;;;;;14.13;66.24;95495.59;5010557;28;20191;-49
2022/12/03 10:11:35;;;;;;;5.17;4.13;;;;;;;14.13;66.22;95490.44;4993996;28;20181;-48
2022/12/03 10:14:02;;;;;;;5.20;4.50;;;;;;;14.09;66.18;95484.75;4991029;28;20213;-47
2022/12/03 10:16:29;;;;;;;5.17;4.67;;;;;;;14.12;66.03;95481.06;4990623;28;20200;-47
2022/12/03 10:19:00;;;;;;;4.67;4.27;;;;;;;14.08;66.05;95483.13;4990382;28;20288;-49
2022/12/03 10:21:30;;;;;;;5.67;4.53;;;;;;;14.10;66.01;95485.56;4990859;28;20193;-48
2022/12/03 10:24:20;;;;;;;7.23;4.67;;;;;;;14.11;65.96;95487.19;4990370;28;20582;-48
2022/12/03 10:26:49;;;;;;;5.33;4.83;;;;;;;14.10;66.03;95485.56;4930331;29;20195;-50
2022/12/03 10:29:18;;;;;;;5.83;4.83;;;;;;;14.07;66.01;95473.78;4930314;29;20217;-49
2022/12/03 10:31:46;;;;;;;5.30;4.50;;;;;;;14.00;65.93;95460.69;4935521;29;20199;-48
2022/12/03 10:34:23;;;;;;;5.20;4.70;;;;;;;14.13;65.85;95473.25;4938911;29;20285;-47
2022/12/03 10:37:09;;;;;;;5.03;4.53;;;;;;;14.14;65.77;95477.44;4940242;29;20182;-47
2022/12/03 10:39:53;;;;;;;5.70;5.20;;;;;;;14.14;65.90;95474.84;4949562;28;20591;-47
2022/12/03 10:42:19;;;;;;;5.93;5.33;;;;;;;14.16;65.73;95477.28;4942999;29;20609;-47
2022/12/03 10:44:46;;;;;;;5.63;5.03;;;;;;;14.17;65.80;95473.78;4949102;29;20202;-47
2022/12/03 10:47:14;;;;;;;5.40;4.90;;;;;;;14.17;65.79;95474.59;4943090;29;20198;-48
2022/12/03 10:49:42;;;;;;;5.80;5.13;;;;;;;14.19;65.82;95474.44;4948942;29;20198;-47
2022/12/03 10:52:21;;;;;;;4.77;4.30;;;;;;;14.19;65.70;95474.44;4948819;29;20602;-48
2022/12/03 10:54:49;;;;;;;5.50;5.00;;;;;;;14.19;65.71;95471.84;4948921;29;20226;-49
2022/12/03 10:57:16;;;;;;;5.73;5.13;;;;;;;14.19;65.57;95464.13;4948742;29;20225;-47
2022/12/03 10:59:43;;;;;;;5.60;4.73;;;;;;;14.20;65.71;95460.59;4949034;29;20523;-48
2022/12/03 11:02:18;;;;;;;5.67;5.07;;;;;;;14.21;65.62;95462.25;4948845;28;20860;-49
2022/12/03 11:04:46;;;;;;;5.27;4.77;;;;;;;14.21;65.45;95451.97;5004783;28;20192;-48
2022/12/03 11:07:17;;;;;;;7.33;4.87;;;;;;;14.18;65.54;95444.53;5009146;28;20196;-47
2022/12/03 11:09:45;;;;;;;5.80;4.63;;;;;;;14.18;65.47;95447.91;5009181;28;20679;-47
2022/12/03 11:12:20;;;;;;;5.60;5.10;;;;;;;14.20;65.41;95448.56;5009223;28;20199;-49
2022/12/03 11:15:08;;;;;;;5.73;5.23;;;;;;;14.21;65.45;95452.78;5009455;28;20247;-47
2022/12/03 11:17:41;;;;;;;5.93;4.70;;;;;;;14.20;65.40;95442.59;5009225;28;20188;-47
2022/12/03 11:20:33;;;;;;;5.63;5.13;;;;;;;14.23;65.54;95450.84;5008903;28;20188;-48
2022/12/03 11:23:00;;;;;;;5.33;4.83;;;;;;;14.19;65.53;95439.22;5009810;28;20204;-48
2022/12/03 11:25:49;;;;;;;4.77;4.27;;;;;;;14.24;65.35;95447.31;5008907;28;20200;-48
2022/12/03 11:28:50;;;;;;;8.80;5.10;;;;;;;14.23;65.42;95452.63;5009086;28;20243;-49
2022/12/03 11:31:35;;;;;;;8.23;5.40;;;;;;;14.12;65.29;95425.31;5009249;28;20307;-49
2022/12/03 11:34:48;;;;;;;5.23;4.67;;;;;;;14.18;65.49;95445.31;5008795;28;20228;-48
2022/12/03 11:37:26;;;;;;;5.23;4.73;;;;;;;14.16;65.63;95454.97;5008588;28;20657;-48
2022/12/03 11:40:33;;;;;;;5.90;5.30;;;;;;;13.69;65.27;95377.03;5008909;28;20219;-49
2022/12/03 11:42:59;;;;;;;5.20;4.70;;;;;;;14.10;65.56;95452.13;5009052;28;20189;-48
2022/12/03 11:45:33;;;;;;;6.53;5.17;;;;;;;13.93;65.59;95425.38;5012363;28;20189;-48
2022/12/03 11:48:13;;;;;;;6.40;5.00;;;;;;;14.04;65.67;95443.22;5012839;28;20192;-48
2022/12/03 11:50:42;;;;;;;6.10;5.30;;;;;;;14.02;65.48;95437.38;5012370;28;20207;-49
2022/12/03 11:53:15;;;;;;;5.60;4.53;;;;;;;14.01;65.74;95435.78;5012472;28;20663;-48
2022/12/03 11:55:47;;;;;;;5.80;5.30;;;;;;;13.50;65.51;95354.72;5012123;28;20319;-51
2022/12/03 11:58:18;;;;;;;5.67;5.00;;;;;;;13.61;65.45;95377.72;5012592;28;20573;-48
2022/12/03 12:00:50;;;;;;;5.77;5.10;;;;;;;13.97;65.49;95435.25;5012261;28;20238;-48
2022/12/03 12:03:22;;;;;;;5.60;5.00;;;;;;;13.94;65.72;95427.78;5012771;28;20319;-48
2022/12/03 12:06:03;;;;;;;6.47;5.17;;;;;;;13.92;65.59;95431.47;5011907;28;20199;-47